sensor_id;sensor_type;location;lat;lon;timestamp;P1;durP1;ratioP1;P2;durP2;ratioP2
85165;SDS011;75533;52.100;10.228;2024-01-15T00:02:06;2.10;;;1.33;;
85165;SDS011;75533;52.100;10.228;2024-01-15T00:04:39;1.80;;;1.40;;
85165;SDS011;75533;52.100;10.228;2024-01-15T00:07:05;2.13;;;1.23;;
85165;SDS011;75533;52.100;10.228;2024-01-15T00:09:31;1.88;;;1.25;;
85165;SDS011;75533;52.100;10.228;2024-01-15T00:11:56;1.65;;;1.17;;
85165;SDS011;75533;52.100;10.228;2024-01-15T00:14:22;2.58;;;1.30;;
85165;SDS011;75533;52.100;10.228;2024-01-15T00:16:48;2.13;;;1.27;;
85165;SDS011;75533;52.100;10.228;2024-01-15T00:19:15;2.92;;;1.60;;
85165;SDS011;75533;52.100;10.228;2024-01-15T00:21:41;1.75;;;1.05;;
85165;SDS011;75533;52.100;10.228;2024-01-15T00:24:06;2.22;;;1.50;;
85165;SDS011;75533;52.100;10.228;2024-01-15T00:26:31;1.60;;;1.38;;
85165;SDS011;75533;52.100;10.228;2024-01-15T00:28:57;1.80;;;1.57;;
85165;SDS011;75533;52.100;10.228;2024-01-15T00:31:22;1.70;;;1.30;;
85165;SDS011;75533;52.100;10.228;2024-01-15T00:33:47;2.00;;;1.30;;
85165;SDS011;75533;52.100;10.228;2024-01-15T00:36:13;1.67;;;1.40;;
85165;SDS011;75533;52.100;10.228;2024-01-15T00:38:39;1.52;;;1.33;;
85165;SDS011;75533;52.100;10.228;2024-01-15T00:41:04;1.30;;;1.20;;
85165;SDS011;75533;52.100;10.228;2024-01-15T00:43:30;2.03;;;1.57;;
85165;SDS011;75533;52.100;10.228;2024-01-15T00:45:55;1.57;;;1.20;;
85165;SDS011;75533;52.100;10.228;2024-01-15T00:48:20;1.60;;;1.30;;
85165;SDS011;75533;52.100;10.228;2024-01-15T00:50:46;2.07;;;1.30;;
85165;SDS011;75533;52.100;10.228;2024-01-15T00:53:11;1.63;;;1.27;;
85165;SDS011;75533;52.100;10.228;2024-01-15T00:55:37;2.08;;;1.40;;
85165;SDS011;75533;52.100;10.228;2024-01-15T00:58:02;2.13;;;1.55;;
85165;SDS011;75533;52.100;10.228;2024-01-15T01:00:28;2.10;;;1.33;;
85165;SDS011;75533;52.100;10.228;2024-01-15T01:02:53;1.83;;;1.48;;
85165;SDS011;75533;52.100;10.228;2024-01-15T01:05:19;1.80;;;1.50;;
85165;SDS011;75533;52.100;10.228;2024-01-15T01:07:44;1.42;;;1.17;;
85165;SDS011;75533;52.100;10.228;2024-01-15T01:10:09;2.37;;;1.43;;
85165;SDS011;75533;52.100;10.228;2024-01-15T01:12:35;2.22;;;1.00;;
85165;SDS011;75533;52.100;10.228;2024-01-15T01:15:01;1.58;;;1.23;;
85165;SDS011;75533;52.100;10.228;2024-01-15T01:17:26;1.67;;;1.20;;
85165;SDS011;75533;52.100;10.228;2024-01-15T01:19:51;1.77;;;1.25;;
85165;SDS011;75533;52.100;10.228;2024-01-15T01:22:17;1.80;;;1.40;;
85165;SDS011;75533;52.100;10.228;2024-01-15T01:24:42;1.83;;;1.30;;
85165;SDS011;75533;52.100;10.228;2024-01-15T01:27:07;1.57;;;1.00;;
85165;SDS011;75533;52.100;10.228;2024-01-15T01:29:33;2.70;;;1.40;;
85165;SDS011;75533;52.100;10.228;2024-01-15T01:31:58;1.87;;;1.10;;
85165;SDS011;75533;52.100;10.228;2024-01-15T01:34:23;1.95;;;1.35;;
85165;SDS011;75533;52.100;10.228;2024-01-15T01:36:49;1.45;;;0.95;;
85165;SDS011;75533;52.100;10.228;2024-01-15T01:39:14;1.42;;;1.13;;
85165;SDS011;75533;52.100;10.228;2024-01-15T01:41:40;2.17;;;1.13;;
85165;SDS011;75533;52.100;10.228;2024-01-15T01:44:05;1.57;;;1.20;;
85165;SDS011;75533;52.100;10.228;2024-01-15T01:46:32;1.30;;;1.10;;
85165;SDS011;75533;52.100;10.228;2024-01-15T01:48:58;1.92;;;1.23;;
85165;SDS011;75533;52.100;10.228;2024-01-15T01:51:30;1.20;;;1.08;;
85165;SDS011;75533;52.100;10.228;2024-01-15T01:53:55;1.20;;;1.00;;
85165;SDS011;75533;52.100;10.228;2024-01-15T01:56:21;1.90;;;1.15;;
85165;SDS011;75533;52.100;10.228;2024-01-15T01:58:46;1.95;;;1.35;;
85165;SDS011;75533;52.100;10.228;2024-01-15T02:01:12;1.75;;;1.40;;
85165;SDS011;75533;52.100;10.228;2024-01-15T02:03:39;1.17;;;1.00;;
85165;SDS011;75533;52.100;10.228;2024-01-15T02:06:05;1.90;;;1.08;;
85165;SDS011;75533;52.100;10.228;2024-01-15T02:08:31;1.50;;;1.00;;
85165;SDS011;75533;52.100;10.228;2024-01-15T02:10:56;1.85;;;1.25;;
85165;SDS011;75533;52.100;10.228;2024-01-15T02:13:21;1.48;;;1.33;;
85165;SDS011;75533;52.100;10.228;2024-01-15T02:15:47;2.13;;;0.98;;
85165;SDS011;75533;52.100;10.228;2024-01-15T02:18:12;2.70;;;1.00;;
85165;SDS011;75533;52.100;10.228;2024-01-15T02:20:37;1.60;;;1.10;;
85165;SDS011;75533;52.100;10.228;2024-01-15T02:23:12;1.90;;;1.00;;
85165;SDS011;75533;52.100;10.228;2024-01-15T02:25:42;3.40;;;1.77;;
85165;SDS011;75533;52.100;10.228;2024-01-15T02:28:13;1.35;;;1.10;;
85165;SDS011;75533;52.100;10.228;2024-01-15T02:30:40;1.10;;;0.90;;
85165;SDS011;75533;52.100;10.228;2024-01-15T02:33:07;1.85;;;1.20;;
85165;SDS011;75533;52.100;10.228;2024-01-15T02:35:33;1.48;;;1.10;;
85165;SDS011;75533;52.100;10.228;2024-01-15T02:38:01;1.73;;;0.93;;
85165;SDS011;75533;52.100;10.228;2024-01-15T02:40:30;1.52;;;0.90;;
85165;SDS011;75533;52.100;10.228;2024-01-15T02:42:56;1.35;;;1.00;;
85165;SDS011;75533;52.100;10.228;2024-01-15T02:45:21;1.97;;;0.90;;
85165;SDS011;75533;52.100;10.228;2024-01-15T02:47:47;2.08;;;1.08;;
85165;SDS011;75533;52.100;10.228;2024-01-15T02:50:13;1.45;;;1.10;;
85165;SDS011;75533;52.100;10.228;2024-01-15T02:52:38;1.30;;;1.00;;
85165;SDS011;75533;52.100;10.228;2024-01-15T02:55:04;1.65;;;1.17;;
85165;SDS011;75533;52.100;10.228;2024-01-15T02:57:30;1.80;;;1.20;;
85165;SDS011;75533;52.100;10.228;2024-01-15T02:59:55;1.37;;;0.83;;
85165;SDS011;75533;52.100;10.228;2024-01-15T03:02:20;1.63;;;1.17;;
85165;SDS011;75533;52.100;10.228;2024-01-15T03:04:46;1.10;;;0.90;;
85165;SDS011;75533;52.100;10.228;2024-01-15T03:07:11;2.10;;;1.13;;
85165;SDS011;75533;52.100;10.228;2024-01-15T03:09:37;1.00;;;0.70;;
85165;SDS011;75533;52.100;10.228;2024-01-15T03:12:03;2.00;;;0.90;;
85165;SDS011;75533;52.100;10.228;2024-01-15T03:14:29;1.50;;;1.10;;
85165;SDS011;75533;52.100;10.228;2024-01-15T03:16:54;1.45;;;0.90;;
85165;SDS011;75533;52.100;10.228;2024-01-15T03:19:20;1.08;;;0.70;;
85165;SDS011;75533;52.100;10.228;2024-01-15T03:21:45;2.27;;;1.00;;
85165;SDS011;75533;52.100;10.228;2024-01-15T03:24:10;1.30;;;1.10;;
85165;SDS011;75533;52.100;10.228;2024-01-15T03:26:36;1.33;;;0.87;;
85165;SDS011;75533;52.100;10.228;2024-01-15T03:29:01;2.03;;;0.93;;
85165;SDS011;75533;52.100;10.228;2024-01-15T03:31:26;1.35;;;1.05;;
85165;SDS011;75533;52.100;10.228;2024-01-15T03:33:52;2.80;;;0.90;;
85165;SDS011;75533;52.100;10.228;2024-01-15T03:36:17;1.50;;;1.00;;
85165;SDS011;75533;52.100;10.228;2024-01-15T03:38:42;3.72;;;1.05;;
85165;SDS011;75533;52.100;10.228;2024-01-15T03:41:08;2.03;;;0.90;;
85165;SDS011;75533;52.100;10.228;2024-01-15T03:43:33;1.10;;;0.80;;
85165;SDS011;75533;52.100;10.228;2024-01-15T03:45:59;1.40;;;0.80;;
85165;SDS011;75533;52.100;10.228;2024-01-15T03:48:24;1.95;;;0.98;;
85165;SDS011;75533;52.100;10.228;2024-01-15T03:50:49;1.73;;;0.80;;
85165;SDS011;75533;52.100;10.228;2024-01-15T03:53:15;1.67;;;0.88;;
85165;SDS011;75533;52.100;10.228;2024-01-15T03:55:42;1.98;;;1.02;;
85165;SDS011;75533;52.100;10.228;2024-01-15T03:58:07;2.88;;;1.15;;
85165;SDS011;75533;52.100;10.228;2024-01-15T04:00:33;1.00;;;0.65;;
85165;SDS011;75533;52.100;10.228;2024-01-15T04:02:58;2.20;;;0.97;;
85165;SDS011;75533;52.100;10.228;2024-01-15T04:05:23;1.50;;;0.70;;
85165;SDS011;75533;52.100;10.228;2024-01-15T04:07:48;2.40;;;0.80;;
85165;SDS011;75533;52.100;10.228;2024-01-15T04:10:14;2.72;;;0.90;;
85165;SDS011;75533;52.100;10.228;2024-01-15T04:12:39;1.58;;;1.00;;
85165;SDS011;75533;52.100;10.228;2024-01-15T04:15:05;1.77;;;0.73;;
85165;SDS011;75533;52.100;10.228;2024-01-15T04:17:30;1.63;;;1.10;;
85165;SDS011;75533;52.100;10.228;2024-01-15T04:19:56;2.42;;;0.90;;
85165;SDS011;75533;52.100;10.228;2024-01-15T04:22:23;1.97;;;0.87;;
85165;SDS011;75533;52.100;10.228;2024-01-15T04:24:48;1.38;;;0.88;;
85165;SDS011;75533;52.100;10.228;2024-01-15T04:27:13;2.05;;;1.02;;
85165;SDS011;75533;52.100;10.228;2024-01-15T04:29:39;1.42;;;0.98;;
85165;SDS011;75533;52.100;10.228;2024-01-15T04:32:04;2.92;;;1.00;;
85165;SDS011;75533;52.100;10.228;2024-01-15T04:34:30;1.88;;;1.00;;
85165;SDS011;75533;52.100;10.228;2024-01-15T04:36:55;1.20;;;0.70;;
85165;SDS011;75533;52.100;10.228;2024-01-15T04:39:21;1.80;;;0.80;;
85165;SDS011;75533;52.100;10.228;2024-01-15T04:41:47;2.13;;;0.85;;
85165;SDS011;75533;52.100;10.228;2024-01-15T04:44:12;1.60;;;0.77;;
85165;SDS011;75533;52.100;10.228;2024-01-15T04:46:37;1.70;;;0.90;;
85165;SDS011;75533;52.100;10.228;2024-01-15T04:49:03;3.05;;;0.95;;
85165;SDS011;75533;52.100;10.228;2024-01-15T04:51:30;1.70;;;0.90;;
85165;SDS011;75533;52.100;10.228;2024-01-15T04:53:55;2.15;;;1.05;;
85165;SDS011;75533;52.100;10.228;2024-01-15T04:56:20;1.80;;;0.82;;
85165;SDS011;75533;52.100;10.228;2024-01-15T04:58:46;1.88;;;0.80;;
85165;SDS011;75533;52.100;10.228;2024-01-15T05:01:11;1.88;;;0.90;;
85165;SDS011;75533;52.100;10.228;2024-01-15T05:03:37;1.33;;;0.70;;
85165;SDS011;75533;52.100;10.228;2024-01-15T05:06:02;1.20;;;0.80;;
85165;SDS011;75533;52.100;10.228;2024-01-15T05:08:28;2.50;;;1.05;;
85165;SDS011;75533;52.100;10.228;2024-01-15T05:10:53;3.22;;;0.90;;
85165;SDS011;75533;52.100;10.228;2024-01-15T05:13:18;1.53;;;0.80;;
85165;SDS011;75533;52.100;10.228;2024-01-15T05:15:44;2.30;;;0.73;;
85165;SDS011;75533;52.100;10.228;2024-01-15T05:18:09;1.52;;;0.82;;
85165;SDS011;75533;52.100;10.228;2024-01-15T05:20:34;2.30;;;0.93;;
85165;SDS011;75533;52.100;10.228;2024-01-15T05:23:00;5.20;;;0.77;;
85165;SDS011;75533;52.100;10.228;2024-01-15T05:25:25;2.58;;;0.85;;
85165;SDS011;75533;52.100;10.228;2024-01-15T05:27:50;2.67;;;1.10;;
85165;SDS011;75533;52.100;10.228;2024-01-15T05:30:16;2.38;;;0.80;;
85165;SDS011;75533;52.100;10.228;2024-01-15T05:32:41;2.40;;;0.80;;
85165;SDS011;75533;52.100;10.228;2024-01-15T05:35:07;1.48;;;0.60;;
85165;SDS011;75533;52.100;10.228;2024-01-15T05:37:32;2.42;;;0.93;;
85165;SDS011;75533;52.100;10.228;2024-01-15T05:39:57;2.30;;;0.80;;
85165;SDS011;75533;52.100;10.228;2024-01-15T05:42:23;2.05;;;0.93;;
85165;SDS011;75533;52.100;10.228;2024-01-15T05:44:49;2.10;;;0.90;;
85165;SDS011;75533;52.100;10.228;2024-01-15T05:47:14;1.38;;;0.73;;
85165;SDS011;75533;52.100;10.228;2024-01-15T05:49:39;1.75;;;1.08;;
85165;SDS011;75533;52.100;10.228;2024-01-15T05:52:05;5.27;;;0.90;;
85165;SDS011;75533;52.100;10.228;2024-01-15T05:54:30;1.77;;;0.80;;
85165;SDS011;75533;52.100;10.228;2024-01-15T05:56:55;2.00;;;0.90;;
85165;SDS011;75533;52.100;10.228;2024-01-15T05:59:21;1.97;;;0.80;;
85165;SDS011;75533;52.100;10.228;2024-01-15T06:01:46;3.23;;;0.93;;
85165;SDS011;75533;52.100;10.228;2024-01-15T06:04:11;2.53;;;1.20;;
85165;SDS011;75533;52.100;10.228;2024-01-15T06:06:36;3.00;;;0.80;;
85165;SDS011;75533;52.100;10.228;2024-01-15T06:09:02;1.53;;;0.70;;
85165;SDS011;75533;52.100;10.228;2024-01-15T06:11:33;2.20;;;0.80;;
85165;SDS011;75533;52.100;10.228;2024-01-15T06:13:59;1.50;;;0.70;;
85165;SDS011;75533;52.100;10.228;2024-01-15T06:16:28;1.95;;;0.77;;
85165;SDS011;75533;52.100;10.228;2024-01-15T06:18:54;2.42;;;0.80;;
85165;SDS011;75533;52.100;10.228;2024-01-15T06:21:20;2.63;;;1.40;;
85165;SDS011;75533;52.100;10.228;2024-01-15T06:23:46;3.55;;;0.95;;
85165;SDS011;75533;52.100;10.228;2024-01-15T06:26:11;1.40;;;0.80;;
85165;SDS011;75533;52.100;10.228;2024-01-15T06:28:37;1.90;;;0.82;;
85165;SDS011;75533;52.100;10.228;2024-01-15T06:31:02;2.83;;;1.00;;
85165;SDS011;75533;52.100;10.228;2024-01-15T06:33:28;1.55;;;0.73;;
85165;SDS011;75533;52.100;10.228;2024-01-15T06:35:53;2.97;;;0.70;;
85165;SDS011;75533;52.100;10.228;2024-01-15T06:38:19;2.92;;;1.33;;
85165;SDS011;75533;52.100;10.228;2024-01-15T06:40:44;2.83;;;1.00;;
85165;SDS011;75533;52.100;10.228;2024-01-15T06:43:11;2.38;;;0.70;;
85165;SDS011;75533;52.100;10.228;2024-01-15T06:45:36;1.77;;;0.80;;
85165;SDS011;75533;52.100;10.228;2024-01-15T06:48:02;4.63;;;1.10;;
85165;SDS011;75533;52.100;10.228;2024-01-15T06:50:27;2.58;;;0.93;;
85165;SDS011;75533;52.100;10.228;2024-01-15T06:52:52;1.63;;;0.88;;
85165;SDS011;75533;52.100;10.228;2024-01-15T06:55:18;1.53;;;0.80;;
85165;SDS011;75533;52.100;10.228;2024-01-15T06:57:43;1.90;;;0.90;;
85165;SDS011;75533;52.100;10.228;2024-01-15T07:00:08;1.33;;;0.67;;
85165;SDS011;75533;52.100;10.228;2024-01-15T07:02:35;2.63;;;0.70;;
85165;SDS011;75533;52.100;10.228;2024-01-15T07:05:00;1.67;;;0.77;;
85165;SDS011;75533;52.100;10.228;2024-01-15T07:07:26;1.55;;;0.80;;
85165;SDS011;75533;52.100;10.228;2024-01-15T07:09:54;1.73;;;0.70;;
85165;SDS011;75533;52.100;10.228;2024-01-15T07:12:19;1.67;;;0.80;;
85165;SDS011;75533;52.100;10.228;2024-01-15T07:14:44;2.63;;;0.80;;
85165;SDS011;75533;52.100;10.228;2024-01-15T07:17:10;1.60;;;0.73;;
85165;SDS011;75533;52.100;10.228;2024-01-15T07:19:36;1.02;;;0.50;;
85165;SDS011;75533;52.100;10.228;2024-01-15T07:22:01;1.73;;;0.70;;
85165;SDS011;75533;52.100;10.228;2024-01-15T07:24:27;3.03;;;1.13;;
85165;SDS011;75533;52.100;10.228;2024-01-15T07:26:52;4.90;;;0.97;;
85165;SDS011;75533;52.100;10.228;2024-01-15T07:29:17;2.77;;;0.87;;
85165;SDS011;75533;52.100;10.228;2024-01-15T07:31:52;3.43;;;0.87;;
85165;SDS011;75533;52.100;10.228;2024-01-15T07:34:18;2.05;;;0.73;;
85165;SDS011;75533;52.100;10.228;2024-01-15T07:36:44;1.92;;;0.70;;
85165;SDS011;75533;52.100;10.228;2024-01-15T07:39:10;1.95;;;0.80;;
85165;SDS011;75533;52.100;10.228;2024-01-15T07:41:36;3.13;;;0.70;;
85165;SDS011;75533;52.100;10.228;2024-01-15T07:44:01;3.03;;;0.80;;
85165;SDS011;75533;52.100;10.228;2024-01-15T07:46:27;2.08;;;0.70;;
85165;SDS011;75533;52.100;10.228;2024-01-15T07:48:52;3.03;;;1.00;;
85165;SDS011;75533;52.100;10.228;2024-01-15T07:51:21;3.40;;;0.80;;
85165;SDS011;75533;52.100;10.228;2024-01-15T07:53:47;2.65;;;0.70;;
85165;SDS011;75533;52.100;10.228;2024-01-15T07:56:12;1.90;;;0.50;;
85165;SDS011;75533;52.100;10.228;2024-01-15T07:58:38;4.03;;;1.02;;
85165;SDS011;75533;52.100;10.228;2024-01-15T08:01:03;2.10;;;0.60;;
85165;SDS011;75533;52.100;10.228;2024-01-15T08:03:28;2.05;;;0.73;;
85165;SDS011;75533;52.100;10.228;2024-01-15T08:05:54;2.25;;;0.82;;
85165;SDS011;75533;52.100;10.228;2024-01-15T08:08:20;2.75;;;0.80;;
85165;SDS011;75533;52.100;10.228;2024-01-15T08:10:49;6.13;;;0.68;;
85165;SDS011;75533;52.100;10.228;2024-01-15T08:13:14;3.30;;;0.63;;
85165;SDS011;75533;52.100;10.228;2024-01-15T08:15:40;1.88;;;0.55;;
85165;SDS011;75533;52.100;10.228;2024-01-15T08:18:06;1.05;;;0.60;;
85165;SDS011;75533;52.100;10.228;2024-01-15T08:20:32;2.08;;;0.80;;
85165;SDS011;75533;52.100;10.228;2024-01-15T08:22:57;1.38;;;0.45;;
85165;SDS011;75533;52.100;10.228;2024-01-15T08:25:23;2.08;;;0.60;;
85165;SDS011;75533;52.100;10.228;2024-01-15T08:27:48;1.03;;;0.50;;
85165;SDS011;75533;52.100;10.228;2024-01-15T08:30:13;2.47;;;0.77;;
85165;SDS011;75533;52.100;10.228;2024-01-15T08:32:39;1.30;;;0.55;;
85165;SDS011;75533;52.100;10.228;2024-01-15T08:35:07;1.75;;;0.70;;
85165;SDS011;75533;52.100;10.228;2024-01-15T08:37:33;2.05;;;0.60;;
85165;SDS011;75533;52.100;10.228;2024-01-15T08:39:58;1.10;;;0.40;;
85165;SDS011;75533;52.100;10.228;2024-01-15T08:42:24;1.93;;;0.77;;
85165;SDS011;75533;52.100;10.228;2024-01-15T08:44:49;2.75;;;0.63;;
85165;SDS011;75533;52.100;10.228;2024-01-15T08:47:15;2.42;;;0.75;;
85165;SDS011;75533;52.100;10.228;2024-01-15T08:49:41;2.35;;;0.60;;
85165;SDS011;75533;52.100;10.228;2024-01-15T08:52:08;1.83;;;0.80;;
85165;SDS011;75533;52.100;10.228;2024-01-15T08:54:33;1.85;;;0.80;;
85165;SDS011;75533;52.100;10.228;2024-01-15T08:56:58;1.87;;;0.60;;
85165;SDS011;75533;52.100;10.228;2024-01-15T08:59:24;1.60;;;0.57;;
85165;SDS011;75533;52.100;10.228;2024-01-15T09:01:51;1.77;;;0.60;;
85165;SDS011;75533;52.100;10.228;2024-01-15T09:04:22;2.05;;;0.80;;
85165;SDS011;75533;52.100;10.228;2024-01-15T09:06:48;2.22;;;0.75;;
85165;SDS011;75533;52.100;10.228;2024-01-15T09:09:13;1.40;;;0.63;;
85165;SDS011;75533;52.100;10.228;2024-01-15T09:11:41;1.35;;;0.50;;
85165;SDS011;75533;52.100;10.228;2024-01-15T09:14:07;0.80;;;0.40;;
85165;SDS011;75533;52.100;10.228;2024-01-15T09:16:33;1.63;;;0.73;;
85165;SDS011;75533;52.100;10.228;2024-01-15T09:18:58;2.47;;;0.77;;
85165;SDS011;75533;52.100;10.228;2024-01-15T09:21:24;1.85;;;0.60;;
85165;SDS011;75533;52.100;10.228;2024-01-15T09:23:50;2.90;;;0.70;;
85165;SDS011;75533;52.100;10.228;2024-01-15T09:26:15;2.47;;;0.80;;
85165;SDS011;75533;52.100;10.228;2024-01-15T09:28:41;2.17;;;0.60;;
85165;SDS011;75533;52.100;10.228;2024-01-15T09:31:06;1.85;;;0.60;;
85165;SDS011;75533;52.100;10.228;2024-01-15T09:33:32;2.92;;;0.90;;
85165;SDS011;75533;52.100;10.228;2024-01-15T09:35:57;3.17;;;1.00;;
85165;SDS011;75533;52.100;10.228;2024-01-15T09:38:25;1.67;;;0.70;;
85165;SDS011;75533;52.100;10.228;2024-01-15T09:40:51;1.58;;;0.60;;
85165;SDS011;75533;52.100;10.228;2024-01-15T09:43:17;3.13;;;0.60;;
85165;SDS011;75533;52.100;10.228;2024-01-15T09:45:43;2.67;;;0.52;;
85165;SDS011;75533;52.100;10.228;2024-01-15T09:48:09;3.25;;;0.55;;
85165;SDS011;75533;52.100;10.228;2024-01-15T09:50:34;3.40;;;0.60;;
85165;SDS011;75533;52.100;10.228;2024-01-15T09:53:00;0.82;;;0.50;;
85165;SDS011;75533;52.100;10.228;2024-01-15T09:55:27;3.45;;;0.63;;
85165;SDS011;75533;52.100;10.228;2024-01-15T09:57:53;2.40;;;0.65;;
85165;SDS011;75533;52.100;10.228;2024-01-15T10:00:20;2.53;;;0.70;;
85165;SDS011;75533;52.100;10.228;2024-01-15T10:02:47;3.22;;;0.98;;
85165;SDS011;75533;52.100;10.228;2024-01-15T10:05:12;3.25;;;0.70;;
85165;SDS011;75533;52.100;10.228;2024-01-15T10:07:38;2.42;;;0.70;;
85165;SDS011;75533;52.100;10.228;2024-01-15T10:10:05;1.40;;;0.47;;
85165;SDS011;75533;52.100;10.228;2024-01-15T10:12:30;2.83;;;0.80;;
85165;SDS011;75533;52.100;10.228;2024-01-15T10:14:56;1.65;;;0.38;;
85165;SDS011;75533;52.100;10.228;2024-01-15T10:17:21;0.95;;;0.40;;
85165;SDS011;75533;52.100;10.228;2024-01-15T10:19:46;2.08;;;0.60;;
85165;SDS011;75533;52.100;10.228;2024-01-15T10:22:13;1.05;;;0.47;;
85165;SDS011;75533;52.100;10.228;2024-01-15T10:24:40;1.52;;;0.82;;
85165;SDS011;75533;52.100;10.228;2024-01-15T10:27:09;1.23;;;0.50;;
85165;SDS011;75533;52.100;10.228;2024-01-15T10:29:34;1.52;;;0.70;;
85165;SDS011;75533;52.100;10.228;2024-01-15T10:32:00;1.45;;;0.70;;
85165;SDS011;75533;52.100;10.228;2024-01-15T10:34:26;2.05;;;0.60;;
85165;SDS011;75533;52.100;10.228;2024-01-15T10:36:51;1.60;;;0.63;;
85165;SDS011;75533;52.100;10.228;2024-01-15T10:39:20;2.28;;;0.57;;
85165;SDS011;75533;52.100;10.228;2024-01-15T10:41:47;1.73;;;0.70;;
85165;SDS011;75533;52.100;10.228;2024-01-15T10:44:12;1.50;;;0.77;;
85165;SDS011;75533;52.100;10.228;2024-01-15T10:46:37;3.40;;;0.50;;
85165;SDS011;75533;52.100;10.228;2024-01-15T10:49:04;1.30;;;0.63;;
85165;SDS011;75533;52.100;10.228;2024-01-15T10:51:29;2.50;;;0.90;;
85165;SDS011;75533;52.100;10.228;2024-01-15T10:53:55;2.55;;;0.70;;
85165;SDS011;75533;52.100;10.228;2024-01-15T10:56:22;1.75;;;0.70;;
85165;SDS011;75533;52.100;10.228;2024-01-15T10:58:48;3.75;;;0.73;;
85165;SDS011;75533;52.100;10.228;2024-01-15T11:01:15;2.80;;;0.60;;
85165;SDS011;75533;52.100;10.228;2024-01-15T11:03:42;0.88;;;0.43;;
85165;SDS011;75533;52.100;10.228;2024-01-15T11:06:18;1.27;;;0.50;;
85165;SDS011;75533;52.100;10.228;2024-01-15T11:08:49;1.85;;;0.80;;
85165;SDS011;75533;52.100;10.228;2024-01-15T11:11:16;2.30;;;0.60;;
85165;SDS011;75533;52.100;10.228;2024-01-15T11:13:42;3.65;;;0.68;;
85165;SDS011;75533;52.100;10.228;2024-01-15T11:16:11;1.55;;;0.40;;
85165;SDS011;75533;52.100;10.228;2024-01-15T11:18:42;3.22;;;0.52;;
85165;SDS011;75533;52.100;10.228;2024-01-15T11:21:25;3.67;;;0.52;;
85165;SDS011;75533;52.100;10.228;2024-01-15T11:29:09;1.95;;;0.50;;
85165;SDS011;75533;52.100;10.228;2024-01-15T11:32:06;1.38;;;0.47;;
85165;SDS011;75533;52.100;10.228;2024-01-15T11:37:23;2.25;;;0.70;;
85165;SDS011;75533;52.100;10.228;2024-01-15T11:39:53;1.25;;;0.60;;
85165;SDS011;75533;52.100;10.228;2024-01-15T11:44:45;4.50;;;1.88;;
85165;SDS011;75533;52.100;10.228;2024-01-15T11:47:11;1.83;;;0.40;;
85165;SDS011;75533;52.100;10.228;2024-01-15T11:52:37;1.00;;;0.47;;
85165;SDS011;75533;52.100;10.228;2024-01-15T11:55:19;1.73;;;0.50;;
85165;SDS011;75533;52.100;10.228;2024-01-15T11:57:52;1.45;;;0.43;;
85165;SDS011;75533;52.100;10.228;2024-01-15T12:00:19;1.10;;;0.50;;
85165;SDS011;75533;52.100;10.228;2024-01-15T12:02:46;1.65;;;0.50;;
85165;SDS011;75533;52.100;10.228;2024-01-15T12:05:13;2.40;;;0.73;;
85165;SDS011;75533;52.100;10.228;2024-01-15T12:07:40;1.73;;;0.40;;
85165;SDS011;75533;52.100;10.228;2024-01-15T12:15:25;2.00;;;0.50;;
85165;SDS011;75533;52.100;10.228;2024-01-15T12:17:52;1.42;;;0.75;;
85165;SDS011;75533;52.100;10.228;2024-01-15T12:20:19;1.20;;;0.47;;
85165;SDS011;75533;52.100;10.228;2024-01-15T12:22:45;2.83;;;0.50;;
85165;SDS011;75533;52.100;10.228;2024-01-15T12:25:11;0.90;;;0.38;;
85165;SDS011;75533;52.100;10.228;2024-01-15T12:27:36;1.50;;;0.55;;
85165;SDS011;75533;52.100;10.228;2024-01-15T12:30:02;1.23;;;0.60;;
85165;SDS011;75533;52.100;10.228;2024-01-15T12:32:27;1.98;;;0.73;;
85165;SDS011;75533;52.100;10.228;2024-01-15T12:34:54;1.15;;;0.40;;
85165;SDS011;75533;52.100;10.228;2024-01-15T12:37:20;1.95;;;0.75;;
85165;SDS011;75533;52.100;10.228;2024-01-15T12:39:46;2.83;;;0.60;;
85165;SDS011;75533;52.100;10.228;2024-01-15T12:42:13;1.40;;;0.60;;
85165;SDS011;75533;52.100;10.228;2024-01-15T12:44:39;1.90;;;0.50;;
85165;SDS011;75533;52.100;10.228;2024-01-15T12:47:05;2.40;;;0.50;;
85165;SDS011;75533;52.100;10.228;2024-01-15T12:49:31;2.30;;;0.50;;
85165;SDS011;75533;52.100;10.228;2024-01-15T12:51:57;1.77;;;0.47;;
85165;SDS011;75533;52.100;10.228;2024-01-15T12:54:23;1.42;;;0.50;;
85165;SDS011;75533;52.100;10.228;2024-01-15T12:56:50;1.80;;;0.52;;
85165;SDS011;75533;52.100;10.228;2024-01-15T12:59:16;1.48;;;0.68;;
85165;SDS011;75533;52.100;10.228;2024-01-15T13:01:41;1.63;;;0.60;;
85165;SDS011;75533;52.100;10.228;2024-01-15T13:04:07;2.40;;;0.60;;
85165;SDS011;75533;52.100;10.228;2024-01-15T13:06:36;2.60;;;0.60;;
85165;SDS011;75533;52.100;10.228;2024-01-15T13:09:02;1.92;;;0.75;;
85165;SDS011;75533;52.100;10.228;2024-01-15T13:11:30;2.70;;;0.50;;
85165;SDS011;75533;52.100;10.228;2024-01-15T13:13:56;1.02;;;0.40;;
85165;SDS011;75533;52.100;10.228;2024-01-15T13:16:22;3.10;;;0.50;;
85165;SDS011;75533;52.100;10.228;2024-01-15T13:18:47;1.05;;;0.40;;
85165;SDS011;75533;52.100;10.228;2024-01-15T13:21:14;1.73;;;0.43;;
85165;SDS011;75533;52.100;10.228;2024-01-15T13:23:40;1.58;;;0.50;;
85165;SDS011;75533;52.100;10.228;2024-01-15T13:26:05;2.03;;;0.57;;
85165;SDS011;75533;52.100;10.228;2024-01-15T13:28:31;1.10;;;0.50;;
85165;SDS011;75533;52.100;10.228;2024-01-15T13:30:56;1.13;;;0.45;;
85165;SDS011;75533;52.100;10.228;2024-01-15T13:33:21;2.63;;;0.60;;
85165;SDS011;75533;52.100;10.228;2024-01-15T13:35:47;1.80;;;0.80;;
85165;SDS011;75533;52.100;10.228;2024-01-15T13:38:15;1.45;;;0.55;;
85165;SDS011;75533;52.100;10.228;2024-01-15T13:40:40;1.95;;;0.70;;
85165;SDS011;75533;52.100;10.228;2024-01-15T13:43:06;1.20;;;0.60;;
85165;SDS011;75533;52.100;10.228;2024-01-15T13:45:33;3.65;;;0.90;;
85165;SDS011;75533;52.100;10.228;2024-01-15T13:47:59;2.58;;;0.60;;
85165;SDS011;75533;52.100;10.228;2024-01-15T13:50:24;1.95;;;0.57;;
85165;SDS011;75533;52.100;10.228;2024-01-15T13:52:50;2.23;;;0.80;;
85165;SDS011;75533;52.100;10.228;2024-01-15T13:55:15;2.40;;;0.67;;
85165;SDS011;75533;52.100;10.228;2024-01-15T13:57:40;1.23;;;0.50;;
85165;SDS011;75533;52.100;10.228;2024-01-15T14:00:06;2.10;;;0.60;;
85165;SDS011;75533;52.100;10.228;2024-01-15T14:02:36;1.02;;;0.40;;
85165;SDS011;75533;52.100;10.228;2024-01-15T14:05:01;2.03;;;0.50;;
85165;SDS011;75533;52.100;10.228;2024-01-15T14:07:27;2.10;;;0.60;;
85165;SDS011;75533;52.100;10.228;2024-01-15T14:09:52;3.42;;;0.60;;
85165;SDS011;75533;52.100;10.228;2024-01-15T14:12:17;2.83;;;0.57;;
85165;SDS011;75533;52.100;10.228;2024-01-15T14:14:43;2.80;;;0.55;;
85165;SDS011;75533;52.100;10.228;2024-01-15T14:17:08;1.95;;;0.57;;
85165;SDS011;75533;52.100;10.228;2024-01-15T14:19:33;1.43;;;0.50;;
85165;SDS011;75533;52.100;10.228;2024-01-15T14:21:59;2.53;;;0.80;;
85165;SDS011;75533;52.100;10.228;2024-01-15T14:24:24;2.28;;;0.80;;
85165;SDS011;75533;52.100;10.228;2024-01-15T14:26:49;2.53;;;0.50;;
85165;SDS011;75533;52.100;10.228;2024-01-15T14:29:15;2.97;;;0.70;;
85165;SDS011;75533;52.100;10.228;2024-01-15T14:31:40;2.53;;;0.57;;
85165;SDS011;75533;52.100;10.228;2024-01-15T14:34:05;1.38;;;0.68;;
85165;SDS011;75533;52.100;10.228;2024-01-15T14:36:32;2.13;;;0.57;;
85165;SDS011;75533;52.100;10.228;2024-01-15T14:38:58;2.78;;;0.88;;
85165;SDS011;75533;52.100;10.228;2024-01-15T14:41:23;2.67;;;0.77;;
85165;SDS011;75533;52.100;10.228;2024-01-15T14:43:49;1.33;;;0.60;;
85165;SDS011;75533;52.100;10.228;2024-01-15T14:46:14;2.90;;;0.90;;